Time;durP1;ratioP1;P1;durP2;ratioP2;P2;SDS_P1;SDS_P2;PMS_P1;PMS_P2;Temp;Humidity;BMP_temperature;BMP_pressure;BME280_temperature;BME280_humidity;BME280_pressure;Samples;Min_cycle;Max_cycle;Signal;HPM_P1;HPM_P2
2022/08/12 00:44:14;;;;;;;13.73;10.38;;;25.00;99.90;;;;;;5117154;28;20030;-74
2022/08/12 00:46:58;;;;;;;9.85;8.55;;;25.00;99.90;;;;;;5116039;28;20031;-74
2022/08/12 00:49:25;;;;;;;9.63;7.70;;;24.90;99.90;;;;;;5120728;28;20028;-75
2022/08/12 00:52:05;;;;;;;13.27;7.45;;;24.90;99.90;;;;;;5121710;28;20020;-74
2022/08/12 00:54:35;;;;;;;7.68;6.20;;;24.90;99.90;;;;;;5120822;28;20528;-74
2022/08/12 00:57:05;;;;;;;12.43;6.70;;;24.90;99.90;;;;;;5121833;27;20395;-72
2022/08/12 00:59:33;;;;;;;7.63;6.32;;;24.90;99.90;;;;;;5117978;28;20019;-73
2022/08/12 01:02:01;;;;;;;7.65;6.00;;;24.80;99.90;;;;;;5120460;28;20032;-74
2022/08/12 01:13:02;;;;;;;6.63;5.93;;;24.80;99.90;;;;;;5111415;28;20403;-73
2022/08/12 01:15:28;;;;;;;9.15;6.18;;;24.70;99.90;;;;;;5115668;28;20049;-73
2022/08/12 01:17:54;;;;;;;10.75;5.93;;;24.70;99.90;;;;;;5114351;28;20049;-74
2022/08/12 01:20:36;;;;;;;11.27;5.78;;;24.70;99.90;;;;;;5121296;28;20026;-74
2022/08/12 01:23:35;;;;;;;7.00;5.35;;;24.60;99.90;;;;;;5119934;28;20024;-72
2022/08/12 01:26:08;;;;;;;9.57;6.35;;;24.60;99.90;;;;;;5115495;28;20407;-74
2022/08/12 01:28:35;;;;;;;7.22;6.00;;;24.60;99.90;;;;;;5120815;28;20604;-73
2022/08/12 01:31:04;;;;;;;9.57;6.45;;;24.50;99.90;;;;;;5120534;28;20008;-74
2022/08/12 01:33:43;;;;;;;9.18;6.72;;;24.50;99.90;;;;;;5120653;28;20016;-74
2022/08/12 01:36:11;;;;;;;9.13;6.28;;;24.40;99.90;;;;;;5119176;28;20130;-74
2022/08/12 01:38:40;;;;;;;8.25;6.13;;;24.40;99.90;;;;;;5113888;28;20115;-72
2022/08/12 01:41:10;;;;;;;9.25;6.47;;;24.40;99.90;;;;;;5111035;28;20099;-73
2022/08/12 01:43:37;;;;;;;9.43;6.60;;;24.40;99.90;;;;;;5111028;28;20041;-74
2022/08/12 01:46:08;;;;;;;7.70;6.70;;;24.40;99.90;;;;;;5116643;28;20028;-73
2022/08/12 01:48:42;;;;;;;12.43;6.60;;;24.40;99.90;;;;;;5119239;28;20157;-74
2022/08/12 01:51:41;;;;;;;7.47;6.75;;;24.40;99.90;;;;;;5114492;28;20016;-73
2022/08/12 01:54:18;;;;;;;9.52;6.25;;;24.30;99.90;;;;;;5115554;28;20058;-73
2022/08/12 01:56:53;;;;;;;8.52;6.25;;;24.30;99.90;;;;;;5120291;28;20020;-73
2022/08/12 01:59:58;;;;;;;7.10;6.40;;;24.30;99.90;;;;;;5118276;28;20031;-74
2022/08/12 02:02:55;;;;;;;11.30;7.72;;;24.30;99.90;;;;;;5119980;28;20026;-74
2022/08/12 02:11:30;;;;;;;7.13;6.43;;;24.20;99.90;;;;;;5114925;28;20051;-73
2022/08/12 02:14:30;;;;;;;8.90;7.03;;;24.20;99.90;;;;;;5114049;28;20546;-73
2022/08/12 02:17:22;;;;;;;6.85;6.18;;;24.20;99.90;;;;;;5129095;27;20035;-73
2022/08/12 02:20:11;;;;;;;11.98;5.93;;;24.20;99.90;;;;;;5114571;28;20019;-74
2022/08/12 02:22:41;;;;;;;6.70;5.80;;;24.20;99.90;;;;;;5119124;28;20028;-73
2022/08/12 02:25:18;;;;;;;9.45;7.43;;;24.30;99.90;;;;;;5118736;28;20527;-73
2022/08/12 02:27:54;;;;;;;8.68;7.05;;;24.20;99.90;;;;;;5111173;28;20143;-73
2022/08/12 02:30:22;;;;;;;8.82;6.90;;;24.20;99.90;;;;;;5116864;28;20046;-73
2022/08/12 02:32:50;;;;;;;11.48;7.47;;;24.20;99.90;;;;;;5118036;28;20020;-74
2022/08/12 02:35:21;;;;;;;11.50;6.88;;;24.20;99.90;;;;;;5112310;28;20043;-74
2022/08/12 02:37:50;;;;;;;8.25;7.45;;;24.10;99.90;;;;;;5118163;28;20027;-73
2022/08/12 02:40:18;;;;;;;7.80;7.10;;;24.10;99.90;;;;;;5106636;28;20463;-74
2022/08/12 02:43:10;;;;;;;8.50;6.97;;;24.10;99.90;;;;;;5119395;28;20042;-74
2022/08/12 02:45:54;;;;;;;13.68;8.80;;;24.10;99.90;;;;;;5111627;28;20090;-74
2022/08/12 02:48:32;;;;;;;8.02;7.22;;;24.10;99.90;;;;;;5113988;28;20020;-73
2022/08/12 02:51:08;;;;;;;8.75;7.90;;;24.00;99.90;;;;;;5117072;28;20031;-74
2022/08/12 02:53:36;;;;;;;9.48;8.52;;;24.00;99.90;;;;;;5113331;28;20038;-74
2022/08/12 02:56:03;;;;;;;9.43;8.52;;;23.90;99.90;;;;;;5113213;28;20034;-74
2022/08/12 02:58:31;;;;;;;8.73;7.85;;;23.90;99.90;;;;;;5119117;28;20383;-74
2022/08/12 03:01:00;;;;;;;9.65;7.68;;;23.90;99.90;;;;;;5118085;28;20034;-74
2022/08/12 03:03:30;;;;;;;9.95;8.50;;;23.90;99.90;;;;;;5109096;28;20525;-74
2022/08/12 03:06:20;;;;;;;9.93;8.73;;;23.80;99.90;;;;;;5115751;28;20031;-74
2022/08/12 03:08:47;;;;;;;8.55;7.70;;;23.70;99.90;;;;;;5101304;28;20028;-73
2022/08/12 03:11:24;;;;;;;9.10;8.20;;;23.70;99.90;;;;;;5109871;28;20498;-74
2022/08/12 03:13:56;;;;;;;10.82;8.73;;;23.70;99.90;;;;;;5113187;28;20487;-73
2022/08/12 03:16:26;;;;;;;9.73;8.30;;;23.70;99.90;;;;;;5117206;28;20053;-74
2022/08/12 03:18:53;;;;;;;11.50;8.85;;;23.70;99.90;;;;;;5117230;28;20080;-73
2022/08/12 03:21:19;;;;;;;10.35;9.23;;;23.70;99.90;;;;;;5118657;28;20027;-74
2022/08/12 03:23:47;;;;;;;10.25;9.25;;;23.70;99.90;;;;;;5118221;28;20020;-74
2022/08/12 03:26:13;;;;;;;11.32;9.48;;;23.70;99.90;;;;;;5114102;28;20039;-74
2022/08/12 03:28:49;;;;;;;11.20;9.32;;;23.60;99.90;;;;;;5116466;28;20027;-74
2022/08/12 03:31:18;;;;;;;11.10;9.82;;;23.70;99.90;;;;;;5115711;27;20369;-74
2022/08/12 03:33:46;;;;;;;10.38;8.98;;;23.70;99.90;;;;;;5118508;28;20016;-74
2022/08/12 03:36:17;;;;;;;11.52;9.40;;;23.70;99.90;;;;;;5118363;28;20029;-74
2022/08/12 03:39:18;;;;;;;11.25;9.57;;;23.60;99.90;;;;;;5112287;28;20028;-73
2022/08/12 03:41:35;;;;;;;11.90;9.50;;;23.60;99.90;;;;;;5117246;28;20058;-73
2022/08/12 04:01:04;;;;;;;12.15;10.65;;;23.50;99.90;;;;;;5117776;28;20026;-76
2022/08/12 04:06:20;;;;;;;15.82;9.95;;;23.50;99.90;;;;;;5117855;28;20511;-75
2022/08/12 04:08:50;;;;;;;12.40;10.53;;;23.50;99.90;;;;;;5117765;28;20030;-76
2022/08/12 04:14:13;;;;;;;11.85;10.73;;;23.40;99.90;;;;;;5114268;28;20152;-76
2022/08/12 04:16:39;;;;;;;12.20;10.93;;;23.40;99.90;;;;;;5111166;28;20027;-75
2022/08/12 04:19:06;;;;;;;14.00;11.27;;;23.40;99.90;;;;;;5114127;28;20107;-76
2022/08/12 04:21:35;;;;;;;16.08;11.43;;;23.40;99.90;;;;;;5115463;28;20023;-75
2022/08/12 04:24:01;;;;;;;14.55;11.23;;;23.30;99.90;;;;;;5117058;28;20367;-75
2022/08/12 04:26:27;;;;;;;13.43;11.55;;;23.30;99.90;;;;;;5117205;28;20027;-76
2022/08/12 04:28:57;;;;;;;16.05;11.25;;;23.30;99.90;;;;;;5116076;28;20049;-76
2022/08/12 04:31:35;;;;;;;14.30;12.32;;;23.30;99.90;;;;;;5117527;28;20493;-76
2022/08/12 04:34:03;;;;;;;18.05;11.45;;;23.30;99.90;;;;;;5103930;28;20017;-76
2022/08/12 04:36:30;;;;;;;12.88;11.43;;;23.30;99.90;;;;;;5117221;28;20580;-76
2022/08/12 04:39:00;;;;;;;15.90;12.27;;;23.20;99.90;;;;;;5116223;28;20030;-75
2022/08/12 04:41:26;;;;;;;13.02;11.63;;;23.20;99.90;;;;;;5117357;28;20066;-75
2022/08/12 04:43:53;;;;;;;15.10;11.52;;;23.20;99.90;;;;;;5115932;28;20027;-75
2022/08/12 04:46:20;;;;;;;11.85;10.75;;;23.30;99.90;;;;;;5117213;28;20027;-75
2022/08/12 04:48:46;;;;;;;14.93;12.57;;;23.30;99.90;;;;;;5115649;28;20027;-76
2022/08/12 04:51:13;;;;;;;15.60;13.10;;;23.30;99.90;;;;;;5117002;28;20024;-75
2022/08/12 04:53:42;;;;;;;12.93;11.57;;;23.30;99.90;;;;;;5117295;28;20019;-75
2022/08/12 04:56:09;;;;;;;13.32;11.30;;;23.20;99.90;;;;;;5117232;28;20080;-77
2022/08/12 04:58:36;;;;;;;16.50;13.45;;;23.20;99.90;;;;;;5117139;28;20020;-77
2022/08/12 05:01:02;;;;;;;14.57;12.57;;;23.20;99.90;;;;;;5117184;28;20110;-76
2022/08/12 05:03:28;;;;;;;14.98;13.45;;;23.20;99.90;;;;;;5110410;28;20115;-76
2022/08/12 05:05:57;;;;;;;14.00;12.38;;;23.20;99.90;;;;;;5115834;28;20063;-76
2022/08/12 05:08:25;;;;;;;16.45;13.48;;;23.10;99.90;;;;;;5115890;28;20100;-76
2022/08/12 05:10:52;;;;;;;14.63;12.85;;;23.10;99.90;;;;;;5115866;28;20072;-76
2022/08/12 05:13:30;;;;;;;16.63;13.38;;;23.20;99.90;;;;;;5114989;28;20555;-76
2022/08/12 05:15:56;;;;;;;14.32;12.98;;;23.10;99.90;;;;;;5117266;28;20035;-76
2022/08/12 05:18:22;;;;;;;15.07;13.27;;;23.20;99.90;;;;;;5105862;28;20016;-76
2022/08/12 05:20:48;;;;;;;18.35;14.20;;;23.20;99.90;;;;;;5117201;28;20118;-76
2022/08/12 05:23:19;;;;;;;15.43;12.98;;;23.20;99.90;;;;;;5117052;28;20074;-76
2022/08/12 05:25:49;;;;;;;18.27;13.80;;;23.20;99.90;;;;;;5116708;28;20054;-75
2022/08/12 05:28:16;;;;;;;16.73;13.15;;;23.30;99.90;;;;;;5117040;28;20429;-76
2022/08/12 05:30:44;;;;;;;17.40;13.88;;;23.30;99.90;;;;;;5106803;28;20020;-76
2022/08/12 05:33:11;;;;;;;23.27;13.10;;;23.30;99.90;;;;;;5109387;28;20499;-76
2022/08/12 05:35:40;;;;;;;14.50;13.00;;;23.30;99.90;;;;;;5117815;28;20115;-76
2022/08/12 05:41:01;;;;;;;13.35;11.82;;;23.40;99.90;;;;;;5117796;28;20061;-76
2022/08/12 05:43:27;;;;;;;12.77;11.48;;;23.50;99.90;;;;;;5117918;28;20030;-75
2022/08/12 05:45:53;;;;;;;14.30;11.90;;;23.60;99.90;;;;;;5117757;28;20020;-76
2022/08/12 05:48:20;;;;;;;12.82;11.63;;;23.60;99.90;;;;;;5117217;28;20399;-75
2022/08/12 05:50:47;;;;;;;14.93;13.30;;;23.70;99.90;;;;;;5119710;28;20011;-76
2022/08/12 05:53:13;;;;;;;14.32;11.65;;;23.70;99.90;;;;;;5119314;28;20384;-76
2022/08/12 05:55:39;;;;;;;13.52;12.32;;;23.80;99.90;;;;;;5118929;28;20074;-76
2022/08/12 05:58:07;;;;;;;13.25;12.05;;;23.80;99.90;;;;;;5119362;27;20380;-76
2022/08/12 06:00:33;;;;;;;12.57;11.27;;;23.90;99.90;;;;;;5118893;27;20019;-74
2022/08/12 06:03:00;;;;;;;13.43;12.07;;;23.90;99.90;;;;;;5102376;28;20103;-75
2022/08/12 06:05:28;;;;;;;12.65;11.45;;;24.10;99.90;;;;;;5111196;28;20024;-74
2022/08/12 06:07:55;;;;;;;14.25;11.68;;;24.20;99.90;;;;;;5118815;28;20015;-75
2022/08/12 06:10:21;;;;;;;12.52;11.15;;;24.30;99.90;;;;;;5119757;28;20452;-75
2022/08/12 06:12:48;;;;;;;13.60;10.80;;;24.30;99.90;;;;;;5119734;27;20039;-76
2022/08/12 06:15:19;;;;;;;15.00;10.63;;;24.40;99.90;;;;;;5117778;28;20024;-76
2022/08/12 06:17:46;;;;;;;12.30;11.10;;;24.50;99.90;;;;;;5117527;28;20103;-76
2022/08/12 06:20:14;;;;;;;15.07;12.13;;;24.60;99.90;;;;;;5111186;27;20036;-76
2022/08/12 06:22:41;;;;;;;13.20;10.40;;;24.80;99.90;;;;;;5103646;28;20365;-76
2022/08/12 06:25:07;;;;;;;11.02;9.50;;;24.90;99.90;;;;;;5115533;28;20487;-75
2022/08/12 06:27:41;;;;;;;14.32;11.15;;;25.00;99.90;;;;;;5115216;28;20027;-75
2022/08/12 06:30:08;;;;;;;11.25;10.23;;;25.10;99.90;;;;;;5112258;28;20031;-76
2022/08/12 06:32:35;;;;;;;12.00;9.85;;;25.10;99.90;;;;;;5119718;28;20016;-76
2022/08/12 06:35:02;;;;;;;12.35;10.32;;;25.20;99.90;;;;;;5119095;28;20020;-76
2022/08/12 06:37:28;;;;;;;10.82;9.68;;;25.20;99.90;;;;;;5119540;28;20023;-76
2022/08/12 06:39:54;;;;;;;10.70;9.45;;;25.30;99.90;;;;;;5117288;28;20024;-76
2022/08/12 06:45:04;;;;;;;14.30;10.05;;;25.50;99.90;;;;;;5116623;28;20026;-76
2022/08/12 06:47:35;;;;;;;9.80;8.70;;;25.50;99.90;;;;;;5110590;28;20024;-77
2022/08/12 06:50:02;;;;;;;10.15;9.15;;;25.60;99.90;;;;;;5110851;28;20035;-76
2022/08/12 06:52:30;;;;;;;10.75;9.10;;;25.70;99.90;;;;;;5114405;28;20514;-77
2022/08/12 06:54:57;;;;;;;11.02;7.78;;;25.80;99.90;;;;;;5119528;28;20031;-77
2022/08/12 06:57:26;;;;;;;9.60;8.60;;;25.90;99.90;;;;;;5117483;28;20020;-77
2022/08/12 06:59:52;;;;;;;10.77;7.72;;;26.10;99.90;;;;;;5117167;28;20146;-76
2022/08/12 07:02:19;;;;;;;10.85;7.95;;;26.20;99.90;;;;;;5118812;28;20027;-77
2022/08/12 07:04:46;;;;;;;9.48;8.57;;;26.30;99.90;;;;;;5110791;28;20028;-76
2022/08/12 07:07:12;;;;;;;9.05;8.15;;;26.40;99.90;;;;;;5114723;28;20084;-76
2022/08/12 07:09:41;;;;;;;13.20;8.55;;;26.50;99.90;;;;;;5117163;28;20039;-76
2022/08/12 07:12:18;;;;;;;11.68;8.35;;;26.60;99.90;;;;;;5117153;28;20019;-76
2022/08/12 07:14:50;;;;;;;8.70;7.82;;;26.70;99.90;;;;;;5110317;28;20024;-76
2022/08/12 07:17:16;;;;;;;8.68;7.80;;;26.80;99.90;;;;;;5106449;28;20611;-77
2022/08/12 07:19:43;;;;;;;8.32;6.45;;;26.90;99.90;;;;;;5115231;27;20020;-77
2022/08/12 07:22:09;;;;;;;12.13;8.27;;;27.00;99.90;;;;;;5118351;28;20061;-76
2022/08/12 07:24:35;;;;;;;11.65;7.38;;;27.10;99.90;;;;;;5107237;28;20059;-77
2022/08/12 07:27:01;;;;;;;7.30;6.60;;;27.10;99.90;;;;;;5117756;28;20015;-74
2022/08/12 07:29:27;;;;;;;9.85;7.00;;;27.20;99.90;;;;;;5113275;28;20035;-76
2022/08/12 07:31:58;;;;;;;8.40;7.38;;;27.30;99.90;;;;;;5116747;28;20020;-76
2022/08/12 07:34:25;;;;;;;10.00;6.93;;;27.40;99.90;;;;;;5117310;28;20447;-75
2022/08/12 07:36:51;;;;;;;10.70;7.50;;;27.50;99.90;;;;;;5118143;28;20022;-76
2022/08/12 07:39:17;;;;;;;8.20;7.40;;;27.60;99.90;;;;;;5116788;28;20032;-77
2022/08/12 07:41:43;;;;;;;9.75;7.28;;;27.80;99.90;;;;;;5118402;28;20531;-75
2022/08/12 07:44:12;;;;;;;8.13;7.25;;;28.00;99.90;;;;;;5113995;28;20069;-77
2022/08/12 07:46:42;;;;;;;8.40;6.93;;;28.00;99.90;;;;;;5111754;28;20108;-77
2022/08/12 07:49:14;;;;;;;9.27;6.10;;;28.10;99.90;;;;;;5112860;28;20031;-77
2022/08/12 07:51:42;;;;;;;10.13;6.63;;;28.00;99.90;;;;;;5116627;28;20106;-78
2022/08/12 07:54:10;;;;;;;9.70;6.00;;;28.20;99.90;;;;;;5118019;28;20050;-79
2022/08/12 07:56:38;;;;;;;7.07;5.72;;;28.20;99.90;;;;;;5115870;28;20053;-78
2022/08/12 07:59:07;;;;;;;8.40;7.43;;;28.50;99.90;;;;;;5117588;28;20027;-78
2022/08/12 08:01:34;;;;;;;9.00;7.18;;;28.50;99.90;;;;;;5113064;28;20074;-77
2022/08/12 08:06:45;;;;;;;12.05;8.05;;;28.20;99.90;;;;;;5117132;28;20023;-79
2022/08/12 08:09:13;;;;;;;10.75;7.32;;;28.00;99.90;;;;;;5116473;28;20505;-79
2022/08/12 08:14:30;;;;;;;10.80;8.38;;;28.20;99.90;;;;;;5085830;28;20045;-79
2022/08/12 08:16:58;;;;;;;10.48;7.50;;;28.40;99.90;;;;;;5115865;28;20544;-79
2022/08/12 08:19:25;;;;;;;11.48;10.18;;;28.60;99.90;;;;;;5117538;28;20451;-79
2022/08/12 08:21:54;;;;;;;16.20;9.57;;;28.70;99.90;;;;;;5114777;28;20031;-77
2022/08/12 08:24:23;;;;;;;13.70;9.73;;;28.80;99.90;;;;;;5117243;28;20043;-76
2022/08/12 08:26:53;;;;;;;10.65;9.48;;;28.90;99.90;;;;;;5114895;28;20044;-78
2022/08/12 08:29:21;;;;;;;15.68;8.85;;;28.90;99.90;;;;;;5105647;28;20040;-80
2022/08/12 08:31:57;;;;;;;11.15;8.75;;;29.00;99.90;;;;;;5107256;28;20016;-77
2022/08/12 08:34:28;;;;;;;11.45;10.25;;;29.10;99.90;;;;;;5112180;28;20046;-78
2022/08/12 08:36:54;;;;;;;14.43;10.55;;;29.10;99.90;;;;;;5117640;28;20024;-76
2022/08/12 08:39:20;;;;;;;14.45;10.20;;;29.30;99.90;;;;;;5112708;28;20091;-77
2022/08/12 08:44:35;;;;;;;16.30;9.90;;;29.30;99.90;;;;;;5114333;28;20453;-77
2022/08/12 08:47:02;;;;;;;15.27;10.27;;;29.40;99.90;;;;;;5114998;28;20501;-80
2022/08/12 08:49:28;;;;;;;14.52;10.20;;;29.50;99.90;;;;;;5117391;28;20529;-77
2022/08/12 08:51:53;;;;;;;14.50;10.50;;;29.50;99.90;;;;;;5117463;28;20023;-78
2022/08/12 08:54:19;;;;;;;12.75;10.38;;;29.50;99.90;;;;;;5111687;28;20031;-79
2022/08/12 08:56:48;;;;;;;10.63;9.60;;;29.60;99.90;;;;;;5115698;28;20020;-76
2022/08/12 08:59:16;;;;;;;16.33;10.10;;;29.70;99.90;;;;;;5115312;28;20031;-77
2022/08/12 09:01:42;;;;;;;13.93;10.02;;;29.70;99.90;;;;;;5114933;28;20034;-77
2022/08/12 09:04:11;;;;;;;11.55;8.88;;;29.80;99.90;;;;;;5117107;28;20420;-77
2022/08/12 09:06:40;;;;;;;12.40;9.98;;;30.00;99.90;;;;;;5109416;28;20023;-77
2022/08/12 09:09:08;;;;;;;14.05;9.75;;;30.10;99.90;;;;;;5118869;28;20394;-78
2022/08/12 09:14:18;;;;;;;23.70;10.55;;;30.40;99.90;;;;;;5121241;28;20092;-77
2022/08/12 09:16:44;;;;;;;12.15;9.90;;;30.50;99.90;;;;;;5119265;28;20023;-77
2022/08/12 09:19:12;;;;;;;19.13;10.02;;;30.50;99.90;;;;;;5112480;28;20037;-78
2022/08/12 09:21:39;;;;;;;13.23;9.95;;;30.60;99.90;;;;;;5102232;28;20032;-77
2022/08/12 09:24:06;;;;;;;11.85;9.43;;;30.50;99.90;;;;;;5114718;28;20043;-78
2022/08/12 09:26:33;;;;;;;12.15;9.18;;;30.50;99.90;;;;;;5101340;28;20116;-78
2022/08/12 09:28:59;;;;;;;11.48;9.98;;;30.50;99.90;;;;;;5113585;28;20018;-78
2022/08/12 09:31:26;;;;;;;16.23;9.75;;;30.60;99.90;;;;;;5119659;28;20050;-79
2022/08/12 09:33:53;;;;;;;13.10;9.45;;;30.70;99.90;;;;;;5119605;28;20071;-78
2022/08/12 09:36:20;;;;;;;12.35;9.75;;;30.90;99.90;;;;;;5115790;28;20023;-77
2022/08/12 09:38:46;;;;;;;15.15;9.02;;;31.00;99.90;;;;;;5119078;28;20015;-77
2022/08/12 09:41:15;;;;;;;13.25;8.85;;;31.10;99.90;;;;;;5119391;28;20022;-79
2022/08/12 09:46:32;;;;;;;14.60;9.02;;;31.40;99.90;;;;;;5119203;28;20029;-78
2022/08/12 09:48:58;;;;;;;14.95;9.00;;;31.60;99.90;;;;;;5119374;28;20069;-79
2022/08/12 09:51:32;;;;;;;13.00;10.23;;;31.60;99.70;;;;;;5119450;28;20390;-79
2022/08/12 09:53:58;;;;;;;15.75;10.68;;;31.70;98.70;;;;;;5106872;28;20066;-79
2022/08/12 09:56:24;;;;;;;13.18;8.82;;;31.80;98.30;;;;;;5119018;28;20016;-81
2022/08/12 09:58:50;;;;;;;14.32;10.27;;;31.80;97.10;;;;;;5117718;28;20016;-77
2022/08/12 10:01:18;;;;;;;16.45;9.95;;;31.90;98.50;;;;;;5119075;28;20709;-77
2022/08/12 10:03:44;;;;;;;12.15;9.73;;;32.10;98.20;;;;;;5115282;28;20085;-78
2022/08/12 10:06:10;;;;;;;11.80;9.32;;;32.30;98.10;;;;;;5118977;28;20164;-79
2022/08/12 10:08:40;;;;;;;11.60;8.77;;;32.50;97.00;;;;;;5118882;28;20049;-79
2022/08/12 10:14:05;;;;;;;15.52;9.27;;;32.60;96.60;;;;;;5071774;28;20164;-77
2022/08/12 10:16:34;;;;;;;14.35;10.48;;;32.70;96.00;;;;;;5110468;28;20027;-77
2022/08/12 10:19:04;;;;;;;12.52;10.43;;;32.60;94.90;;;;;;5116068;28;20024;-79
2022/08/12 10:21:39;;;;;;;16.35;10.35;;;32.70;95.50;;;;;;5106667;28;20422;-78
2022/08/12 10:24:23;;;;;;;20.02;10.65;;;32.70;94.30;;;;;;5107180;28;20118;-78
2022/08/12 10:29:46;;;;;;;11.65;9.43;;;32.50;93.60;;;;;;5110439;28;20093;-78
2022/08/12 10:32:22;;;;;;;13.32;9.82;;;32.60;92.80;;;;;;5119439;28;20020;-78
2022/08/12 10:34:49;;;;;;;18.13;10.10;;;32.70;92.70;;;;;;5118657;28;20108;-79
2022/08/12 10:37:17;;;;;;;11.70;10.25;;;32.80;92.40;;;;;;5117609;28;20031;-78
2022/08/12 10:39:44;;;;;;;13.60;9.32;;;32.90;92.10;;;;;;5118384;28;20030;-77
2022/08/12 10:45:05;;;;;;;15.20;9.48;;;33.10;91.10;;;;;;5119393;28;20514;-78
2022/08/12 10:47:35;;;;;;;14.13;10.15;;;33.20;93.20;;;;;;5117492;28;20026;-79
2022/08/12 10:50:07;;;;;;;14.48;8.98;;;33.40;91.30;;;;;;5106768;28;20023;-77
2022/08/12 10:52:37;;;;;;;12.73;10.25;;;33.40;90.70;;;;;;5113214;28;20110;-78
2022/08/12 10:55:03;;;;;;;12.88;8.88;;;33.60;89.60;;;;;;5099373;28;20028;-78
2022/08/12 10:58:04;;;;;;;14.70;9.02;;;33.80;91.00;;;;;;5115570;28;20035;-77
2022/08/12 11:00:33;;;;;;;20.30;9.68;;;33.80;85.40;;;;;;5116415;28;20032;-78
2022/08/12 11:02:58;;;;;;;14.93;9.07;;;33.90;84.20;;;;;;5115152;28;20023;-78
2022/08/12 11:05:24;;;;;;;13.73;9.88;;;34.00;82.60;;;;;;5111135;28;20122;-76
2022/08/12 11:07:50;;;;;;;14.52;10.27;;;34.10;82.10;;;;;;5113161;28;20020;-76
2022/08/12 11:10:16;;;;;;;14.68;9.57;;;33.90;81.10;;;;;;5117722;28;20646;-76
2022/08/12 11:12:46;;;;;;;14.48;9.82;;;33.80;80.70;;;;;;5117890;28;20047;-77
2022/08/12 11:15:12;;;;;;;23.08;9.15;;;33.80;80.80;;;;;;5115868;28;20019;-76
2022/08/12 11:17:39;;;;;;;13.68;9.68;;;34.00;83.80;;;;;;5116135;28;20049;-77
2022/08/12 11:20:05;;;;;;;27.23;9.43;;;34.20;80.20;;;;;;5116364;28;20024;-77
2022/08/12 11:22:31;;;;;;;12.32;9.10;;;34.30;80.00;;;;;;5112855;28;20020;-76
2022/08/12 11:24:57;;;;;;;15.90;9.52;;;34.30;78.40;;;;;;5114147;28;20520;-77
2022/08/12 11:27:23;;;;;;;21.52;10.88;;;34.30;78.90;;;;;;5113349;28;20065;-77
2022/08/12 11:29:48;;;;;;;14.48;9.30;;;34.30;78.50;;;;;;5114169;28;20035;-76
2022/08/12 11:32:14;;;;;;;12.80;9.40;;;34.40;79.20;;;;;;5115838;28;20110;-77
2022/08/12 11:34:40;;;;;;;11.32;8.73;;;34.50;79.40;;;;;;5108947;28;20026;-78
2022/08/12 11:37:08;;;;;;;17.00;10.20;;;34.60;80.70;;;;;;5117140;28;20023;-76
2022/08/12 11:39:34;;;;;;;15.60;9.40;;;34.70;78.00;;;;;;5115180;28;20383;-76
2022/08/12 11:42:00;;;;;;;19.25;8.88;;;34.80;77.80;;;;;;5117322;28;20012;-77
2022/08/12 11:44:26;;;;;;;12.10;9.20;;;35.00;78.90;;;;;;5116955;28;20027;-78
2022/08/12 11:46:53;;;;;;;9.95;8.18;;;35.20;78.10;;;;;;5116463;28;20879;-77
2022/08/12 11:49:24;;;;;;;13.30;8.85;;;35.40;79.00;;;;;;5117965;28;20011;-77
2022/08/12 11:51:49;;;;;;;13.82;8.73;;;35.40;78.20;;;;;;5117748;28;20023;-78
2022/08/12 11:54:15;;;;;;;16.75;9.38;;;35.50;78.70;;;;;;5117972;28;20016;-77
2022/08/12 11:56:41;;;;;;;13.45;9.15;;;35.40;73.40;;;;;;5115971;28;20094;-77
2022/08/12 11:59:07;;;;;;;12.93;9.07;;;35.20;72.50;;;;;;5115289;28;20031;-78
2022/08/12 12:01:33;;;;;;;21.58;9.85;;;35.30;75.60;;;;;;5109585;28;20047;-76
2022/08/12 12:03:58;;;;;;;12.55;9.20;;;35.40;73.00;;;;;;5113285;28;20496;-78
2022/08/12 12:06:24;;;;;;;12.95;9.45;;;35.40;72.20;;;;;;5115919;28;20028;-77
2022/08/12 12:08:50;;;;;;;15.85;8.63;;;35.50;71.40;;;;;;5117753;28;20656;-77
2022/08/12 12:11:16;;;;;;;10.90;9.57;;;35.50;72.50;;;;;;5118257;28;20019;-77
2022/08/12 12:13:42;;;;;;;11.75;10.27;;;35.70;71.90;;;;;;5117284;28;20023;-77
2022/08/12 12:16:09;;;;;;;13.48;10.00;;;35.80;71.50;;;;;;5117911;28;20059;-77
2022/08/12 12:18:35;;;;;;;12.95;9.35;;;35.90;72.00;;;;;;5116179;28;20039;-77
2022/08/12 12:21:03;;;;;;;14.05;10.23;;;35.90;71.30;;;;;;5117992;28;20028;-75
2022/08/12 12:23:29;;;;;;;13.30;9.95;;;36.00;68.80;;;;;;5117726;28;20051;-77
2022/08/12 12:25:55;;;;;;;12.80;9.65;;;36.00;69.80;;;;;;5117317;28;20039;-77
2022/08/12 12:28:21;;;;;;;14.15;9.50;;;36.30;72.10;;;;;;5116124;28;20019;-77
2022/08/12 12:30:47;;;;;;;11.88;9.23;;;36.40;72.00;;;;;;5114232;28;20487;-77
2022/08/12 12:33:14;;;;;;;10.55;8.35;;;36.40;70.90;;;;;;5113945;28;20054;-77
2022/08/12 12:35:40;;;;;;;11.93;9.32;;;36.40;71.20;;;;;;5117850;28;20023;-78
2022/08/12 12:38:11;;;;;;;18.35;10.38;;;36.40;72.40;;;;;;5117547;28;20022;-78
2022/08/12 12:40:39;;;;;;;12.75;9.65;;;36.40;68.50;;;;;;5116309;28;20091;-77
2022/08/12 12:43:05;;;;;;;14.30;9.05;;;36.50;69.00;;;;;;5115697;28;20068;-78
2022/08/12 12:45:33;;;;;;;15.07;8.73;;;36.60;68.90;;;;;;5121785;28;20110;-78
2022/08/12 12:48:05;;;;;;;15.32;10.60;;;36.80;66.80;;;;;;5119889;28;20012;-77
2022/08/12 12:50:33;;;;;;;14.88;9.45;;;36.80;68.50;;;;;;5121784;28;20497;-78
2022/08/12 12:52:59;;;;;;;13.52;9.18;;;36.90;69.40;;;;;;5121628;28;20463;-78
2022/08/12 12:55:26;;;;;;;15.60;9.90;;;36.90;67.50;;;;;;5116798;28;20015;-78
2022/08/12 12:57:52;;;;;;;11.52;9.05;;;36.90;67.20;;;;;;5120200;28;20122;-78
2022/08/12 13:00:20;;;;;;;9.07;7.93;;;37.00;67.40;;;;;;5114361;28;20028;-78
2022/08/12 13:02:51;;;;;;;9.50;8.13;;;37.10;67.40;;;;;;5119898;28;20163;-77
2022/08/12 13:05:24;;;;;;;11.38;8.68;;;37.10;65.00;;;;;;5116171;28;20017;-77
2022/08/12 13:07:53;;;;;;;13.30;9.05;;;37.20;63.50;;;;;;5120421;28;20506;-77
2022/08/12 13:10:20;;;;;;;11.93;8.20;;;37.20;63.10;;;;;;5121255;28;20015;-77
2022/08/12 13:12:46;;;;;;;10.57;8.25;;;37.20;61.80;;;;;;5121346;28;20019;-78
2022/08/12 13:15:16;;;;;;;12.32;8.63;;;37.30;63.60;;;;;;5120954;27;20061;-76
2022/08/12 13:17:55;;;;;;;15.63;8.98;;;37.40;60.40;;;;;;5111765;28;20438;-78
2022/08/12 13:20:22;;;;;;;15.63;7.20;;;37.40;59.50;;;;;;5119165;28;20016;-77
2022/08/12 13:22:48;;;;;;;12.93;7.50;;;37.60;57.70;;;;;;5121287;28;20020;-78
2022/08/12 13:25:15;;;;;;;10.43;8.18;;;37.80;59.40;;;;;;5120564;28;20523;-78
2022/08/12 13:27:46;;;;;;;15.90;7.97;;;37.80;61.00;;;;;;5121138;28;20479;-78
2022/08/12 13:30:15;;;;;;;13.00;6.70;;;37.90;60.20;;;;;;5120676;28;20051;-76
2022/08/12 13:32:54;;;;;;;12.27;7.75;;;38.00;56.20;;;;;;5120926;28;20019;-77
2022/08/12 13:35:20;;;;;;;11.95;7.72;;;38.00;56.10;;;;;;5116249;28;20495;-77
2022/08/12 13:37:54;;;;;;;12.60;8.52;;;37.90;55.30;;;;;;5120818;28;20027;-77
2022/08/12 13:40:25;;;;;;;17.27;7.70;;;37.80;55.50;;;;;;5120834;28;20019;-78
2022/08/12 13:42:56;;;;;;;13.38;7.32;;;38.00;55.90;;;;;;5120717;28;20016;-78
2022/08/12 13:45:22;;;;;;;13.60;7.60;;;38.10;55.30;;;;;;5120532;28;20110;-78
2022/08/12 13:47:55;;;;;;;13.70;7.78;;;38.20;55.70;;;;;;5115230;28;20095;-78
2022/08/12 13:50:31;;;;;;;17.52;8.00;;;38.20;56.50;;;;;;5119250;28;20471;-77
2022/08/12 13:53:01;;;;;;;11.85;8.43;;;38.40;55.60;;;;;;5117678;28;20019;-77
2022/08/12 13:55:28;;;;;;;9.02;7.25;;;38.40;55.50;;;;;;5118089;28;20015;-78
2022/08/12 13:57:54;;;;;;;14.88;8.40;;;38.40;56.50;;;;;;5118987;28;20018;-77
2022/08/12 14:00:22;;;;;;;16.08;8.60;;;38.50;55.90;;;;;;5120160;28;20077;-77
2022/08/12 14:02:48;;;;;;;12.13;8.20;;;38.80;53.70;;;;;;5117222;28;20595;-78
2022/08/12 14:05:16;;;;;;;14.52;8.13;;;38.90;54.40;;;;;;5114802;28;20047;-77
2022/08/12 14:07:54;;;;;;;11.95;7.55;;;38.90;53.10;;;;;;5120309;28;20024;-77
2022/08/12 14:10:37;;;;;;;13.13;7.95;;;39.10;53.60;;;;;;5120266;28;20020;-77
2022/08/12 14:13:09;;;;;;;15.50;8.15;;;39.10;53.40;;;;;;5120221;28;20053;-78
2022/08/12 14:15:41;;;;;;;15.68;8.50;;;39.30;54.80;;;;;;5116123;28;20084;-77
2022/08/12 14:18:06;;;;;;;15.13;9.68;;;39.50;55.50;;;;;;5107152;28;20024;-77
2022/08/12 14:20:32;;;;;;;12.00;7.82;;;39.50;53.70;;;;;;5119703;28;20030;-77
2022/08/12 14:22:58;;;;;;;13.85;7.38;;;39.50;53.70;;;;;;5120306;28;20032;-76
2022/08/12 14:25:27;;;;;;;14.30;8.73;;;39.60;54.30;;;;;;5119320;28;20047;-77
2022/08/12 14:27:54;;;;;;;14.07;8.05;;;39.40;52.20;;;;;;5119977;28;20030;-77
2022/08/12 14:30:22;;;;;;;13.85;8.02;;;39.50;53.30;;;;;;5119476;28;20058;-76
2022/08/12 14:32:48;;;;;;;11.80;7.68;;;39.60;52.80;;;;;;5119672;28;20012;-77
2022/08/12 14:35:13;;;;;;;11.88;6.53;;;39.80;52.70;;;;;;5118255;28;20042;-77